sensor_id;sensor_type;location;lat;lon;timestamp;temperature;humidity
10702;DHT22;5402;50.004;8.246;2023-09-19T00:02:04;16.80;99.90
10702;DHT22;5402;50.004;8.246;2023-09-19T00:04:33;16.80;99.90
10702;DHT22;5402;50.004;8.246;2023-09-19T00:07:00;16.80;99.90
10702;DHT22;5402;50.004;8.246;2023-09-19T00:09:29;16.70;99.90
10702;DHT22;5402;50.004;8.246;2023-09-19T00:11:55;16.70;99.90
10702;DHT22;5402;50.004;8.246;2023-09-19T00:14:24;16.70;99.90
10702;DHT22;5402;50.004;8.246;2023-09-19T00:16:51;16.70;99.90
10702;DHT22;5402;50.004;8.246;2023-09-19T00:19:20;16.60;99.90
10702;DHT22;5402;50.004;8.246;2023-09-19T00:21:48;16.60;99.90
10702;DHT22;5402;50.004;8.246;2023-09-19T00:24:14;16.60;99.90
10702;DHT22;5402;50.004;8.246;2023-09-19T00:26:43;16.60;99.90
10702;DHT22;5402;50.004;8.246;2023-09-19T00:29:12;16.60;99.90
10702;DHT22;5402;50.004;8.246;2023-09-19T00:31:43;16.60;99.90
10702;DHT22;5402;50.004;8.246;2023-09-19T00:34:09;16.50;99.90
10702;DHT22;5402;50.004;8.246;2023-09-19T00:36:36;16.40;99.90
10702;DHT22;5402;50.004;8.246;2023-09-19T00:39:05;16.40;99.90
10702;DHT22;5402;50.004;8.246;2023-09-19T00:41:33;16.40;99.90
10702;DHT22;5402;50.004;8.246;2023-09-19T00:44:01;16.40;99.90
10702;DHT22;5402;50.004;8.246;2023-09-19T00:46:29;16.40;99.90
10702;DHT22;5402;50.004;8.246;2023-09-19T00:48:56;16.50;99.90
10702;DHT22;5402;50.004;8.246;2023-09-19T00:51:23;16.50;99.90
10702;DHT22;5402;50.004;8.246;2023-09-19T00:53:51;16.50;99.90
10702;DHT22;5402;50.004;8.246;2023-09-19T00:56:20;16.60;99.90
10702;DHT22;5402;50.004;8.246;2023-09-19T00:58:48;16.60;99.90
10702;DHT22;5402;50.004;8.246;2023-09-19T01:01:15;16.60;99.90
10702;DHT22;5402;50.004;8.246;2023-09-19T01:03:42;16.60;99.90
10702;DHT22;5402;50.004;8.246;2023-09-19T01:06:10;16.70;99.90
10702;DHT22;5402;50.004;8.246;2023-09-19T01:08:37;16.70;99.90
10702;DHT22;5402;50.004;8.246;2023-09-19T01:11:11;16.70;99.90
10702;DHT22;5402;50.004;8.246;2023-09-19T01:13:48;16.60;99.90
10702;DHT22;5402;50.004;8.246;2023-09-19T01:16:28;16.60;99.90
10702;DHT22;5402;50.004;8.246;2023-09-19T01:19:05;16.60;99.90
10702;DHT22;5402;50.004;8.246;2023-09-19T01:21:42;16.60;99.90
10702;DHT22;5402;50.004;8.246;2023-09-19T01:24:46;16.60;99.90
10702;DHT22;5402;50.004;8.246;2023-09-19T01:27:30;16.50;99.90
10702;DHT22;5402;50.004;8.246;2023-09-19T01:30:09;16.50;99.90
10702;DHT22;5402;50.004;8.246;2023-09-19T01:32:37;16.40;99.90
10702;DHT22;5402;50.004;8.246;2023-09-19T01:35:06;16.30;99.90
10702;DHT22;5402;50.004;8.246;2023-09-19T01:37:38;16.30;99.90
10702;DHT22;5402;50.004;8.246;2023-09-19T01:40:08;16.40;99.90
10702;DHT22;5402;50.004;8.246;2023-09-19T01:42:47;16.30;99.90
10702;DHT22;5402;50.004;8.246;2023-09-19T01:45:25;16.30;99.90
10702;DHT22;5402;50.004;8.246;2023-09-19T01:47:55;16.40;99.90
10702;DHT22;5402;50.004;8.246;2023-09-19T01:50:30;16.50;99.90
10702;DHT22;5402;50.004;8.246;2023-09-19T01:53:00;16.50;99.90
10702;DHT22;5402;50.004;8.246;2023-09-19T01:55:30;16.50;99.90
10702;DHT22;5402;50.004;8.246;2023-09-19T01:58:07;16.50;99.90
10702;DHT22;5402;50.004;8.246;2023-09-19T02:00:37;16.60;99.90
10702;DHT22;5402;50.004;8.246;2023-09-19T02:03:07;16.50;99.90
10702;DHT22;5402;50.004;8.246;2023-09-19T02:05:34;16.50;99.90
10702;DHT22;5402;50.004;8.246;2023-09-19T02:08:01;16.60;99.90
10702;DHT22;5402;50.004;8.246;2023-09-19T02:10:28;16.60;99.90
10702;DHT22;5402;50.004;8.246;2023-09-19T02:12:55;16.50;99.90
10702;DHT22;5402;50.004;8.246;2023-09-19T02:15:22;16.60;99.90
10702;DHT22;5402;50.004;8.246;2023-09-19T02:17:50;16.50;99.90
10702;DHT22;5402;50.004;8.246;2023-09-19T02:20:16;16.50;99.90
10702;DHT22;5402;50.004;8.246;2023-09-19T02:22:45;16.50;99.90
10702;DHT22;5402;50.004;8.246;2023-09-19T02:25:12;16.40;99.90
10702;DHT22;5402;50.004;8.246;2023-09-19T02:27:40;16.40;99.90
10702;DHT22;5402;50.004;8.246;2023-09-19T02:30:09;16.40;99.90
10702;DHT22;5402;50.004;8.246;2023-09-19T02:32:35;16.30;99.90
10702;DHT22;5402;50.004;8.246;2023-09-19T02:35:07;16.10;99.90
10702;DHT22;5402;50.004;8.246;2023-09-19T02:37:36;16.10;99.90
10702;DHT22;5402;50.004;8.246;2023-09-19T02:40:03;16.00;99.90
10702;DHT22;5402;50.004;8.246;2023-09-19T02:42:44;16.00;99.90
10702;DHT22;5402;50.004;8.246;2023-09-19T02:45:14;16.00;99.90
10702;DHT22;5402;50.004;8.246;2023-09-19T02:47:41;15.80;99.90
10702;DHT22;5402;50.004;8.246;2023-09-19T02:50:10;15.70;99.90
10702;DHT22;5402;50.004;8.246;2023-09-19T02:52:38;15.70;99.90
10702;DHT22;5402;50.004;8.246;2023-09-19T02:55:05;15.60;99.90
10702;DHT22;5402;50.004;8.246;2023-09-19T02:57:34;15.60;99.90
10702;DHT22;5402;50.004;8.246;2023-09-19T03:00:06;15.60;99.90
10702;DHT22;5402;50.004;8.246;2023-09-19T03:02:35;15.60;99.90
10702;DHT22;5402;50.004;8.246;2023-09-19T03:05:04;15.60;99.90
10702;DHT22;5402;50.004;8.246;2023-09-19T03:07:32;15.50;99.90
10702;DHT22;5402;50.004;8.246;2023-09-19T03:09:59;15.50;99.90
10702;DHT22;5402;50.004;8.246;2023-09-19T03:12:26;15.50;99.90
10702;DHT22;5402;50.004;8.246;2023-09-19T03:14:53;15.50;99.90
10702;DHT22;5402;50.004;8.246;2023-09-19T03:17:19;15.50;99.90
10702;DHT22;5402;50.004;8.246;2023-09-19T03:19:46;15.50;99.90
10702;DHT22;5402;50.004;8.246;2023-09-19T03:22:14;15.50;99.90
10702;DHT22;5402;50.004;8.246;2023-09-19T03:24:43;15.40;99.90
10702;DHT22;5402;50.004;8.246;2023-09-19T03:27:10;15.40;99.90
10702;DHT22;5402;50.004;8.246;2023-09-19T03:29:41;15.40;99.90
10702;DHT22;5402;50.004;8.246;2023-09-19T03:32:08;15.40;99.90
10702;DHT22;5402;50.004;8.246;2023-09-19T03:34:36;15.40;99.90
10702;DHT22;5402;50.004;8.246;2023-09-19T03:37:03;15.40;99.90
10702;DHT22;5402;50.004;8.246;2023-09-19T03:39:30;15.40;99.90
10702;DHT22;5402;50.004;8.246;2023-09-19T03:41:58;15.30;99.90
10702;DHT22;5402;50.004;8.246;2023-09-19T03:44:28;15.40;99.90
10702;DHT22;5402;50.004;8.246;2023-09-19T03:46:55;15.40;99.90
10702;DHT22;5402;50.004;8.246;2023-09-19T03:49:22;15.40;99.90
10702;DHT22;5402;50.004;8.246;2023-09-19T03:51:49;15.40;99.90
10702;DHT22;5402;50.004;8.246;2023-09-19T03:54:16;15.40;99.90
10702;DHT22;5402;50.004;8.246;2023-09-19T03:56:45;15.40;99.90
10702;DHT22;5402;50.004;8.246;2023-09-19T03:59:13;15.40;99.90
10702;DHT22;5402;50.004;8.246;2023-09-19T04:01:39;15.40;99.90
10702;DHT22;5402;50.004;8.246;2023-09-19T04:04:06;15.40;99.90
10702;DHT22;5402;50.004;8.246;2023-09-19T04:06:34;15.50;99.90
10702;DHT22;5402;50.004;8.246;2023-09-19T04:09:01;15.50;99.90
10702;DHT22;5402;50.004;8.246;2023-09-19T04:11:29;15.50;99.90
10702;DHT22;5402;50.004;8.246;2023-09-19T04:13:55;15.40;99.90
10702;DHT22;5402;50.004;8.246;2023-09-19T04:16:23;15.50;99.90
10702;DHT22;5402;50.004;8.246;2023-09-19T04:18:50;15.50;99.90
10702;DHT22;5402;50.004;8.246;2023-09-19T04:21:17;15.40;99.90
10702;DHT22;5402;50.004;8.246;2023-09-19T04:23:45;15.40;99.90
10702;DHT22;5402;50.004;8.246;2023-09-19T04:26:11;15.40;99.90
10702;DHT22;5402;50.004;8.246;2023-09-19T04:28:38;15.50;99.90
10702;DHT22;5402;50.004;8.246;2023-09-19T04:31:06;15.40;99.90
10702;DHT22;5402;50.004;8.246;2023-09-19T04:33:35;15.40;99.90
10702;DHT22;5402;50.004;8.246;2023-09-19T04:36:02;15.40;99.90
10702;DHT22;5402;50.004;8.246;2023-09-19T04:38:30;15.40;99.90
10702;DHT22;5402;50.004;8.246;2023-09-19T04:40:57;15.40;99.90
10702;DHT22;5402;50.004;8.246;2023-09-19T04:43:25;15.40;99.90
10702;DHT22;5402;50.004;8.246;2023-09-19T04:45:51;15.40;99.90
10702;DHT22;5402;50.004;8.246;2023-09-19T04:48:21;15.30;99.90
10702;DHT22;5402;50.004;8.246;2023-09-19T04:50:50;15.40;99.90
10702;DHT22;5402;50.004;8.246;2023-09-19T04:53:17;15.30;99.90
10702;DHT22;5402;50.004;8.246;2023-09-19T04:55:50;15.30;99.90
10702;DHT22;5402;50.004;8.246;2023-09-19T04:58:18;15.30;99.90
10702;DHT22;5402;50.004;8.246;2023-09-19T05:00:44;15.30;99.90
10702;DHT22;5402;50.004;8.246;2023-09-19T05:03:12;15.30;99.90
10702;DHT22;5402;50.004;8.246;2023-09-19T05:05:39;15.30;99.90
10702;DHT22;5402;50.004;8.246;2023-09-19T05:08:08;15.20;99.90
10702;DHT22;5402;50.004;8.246;2023-09-19T05:10:35;15.10;99.90
10702;DHT22;5402;50.004;8.246;2023-09-19T05:13:03;15.20;99.90
10702;DHT22;5402;50.004;8.246;2023-09-19T05:15:30;15.10;99.90
10702;DHT22;5402;50.004;8.246;2023-09-19T05:17:57;15.10;99.90
10702;DHT22;5402;50.004;8.246;2023-09-19T05:20:24;15.10;99.90
10702;DHT22;5402;50.004;8.246;2023-09-19T05:22:58;15.10;99.90
10702;DHT22;5402;50.004;8.246;2023-09-19T05:25:27;15.10;99.90
10702;DHT22;5402;50.004;8.246;2023-09-19T05:27:56;15.10;99.90
10702;DHT22;5402;50.004;8.246;2023-09-19T05:30:24;15.10;99.90
10702;DHT22;5402;50.004;8.246;2023-09-19T05:32:53;15.20;99.90
10702;DHT22;5402;50.004;8.246;2023-09-19T05:35:20;15.20;99.90
10702;DHT22;5402;50.004;8.246;2023-09-19T05:37:47;15.10;99.90
10702;DHT22;5402;50.004;8.246;2023-09-19T05:40:14;15.10;99.90
10702;DHT22;5402;50.004;8.246;2023-09-19T05:42:42;15.10;99.90
10702;DHT22;5402;50.004;8.246;2023-09-19T05:45:10;15.10;99.90
10702;DHT22;5402;50.004;8.246;2023-09-19T05:47:38;15.20;99.90
10702;DHT22;5402;50.004;8.246;2023-09-19T05:50:06;15.20;99.90
10702;DHT22;5402;50.004;8.246;2023-09-19T05:52:34;15.20;99.90
10702;DHT22;5402;50.004;8.246;2023-09-19T05:55:01;15.20;99.90
10702;DHT22;5402;50.004;8.246;2023-09-19T05:57:30;15.20;99.90
10702;DHT22;5402;50.004;8.246;2023-09-19T05:59:59;15.30;99.90
10702;DHT22;5402;50.004;8.246;2023-09-19T06:02:26;15.30;99.90
10702;DHT22;5402;50.004;8.246;2023-09-19T06:04:54;15.30;99.90
10702;DHT22;5402;50.004;8.246;2023-09-19T06:07:21;15.40;99.90
10702;DHT22;5402;50.004;8.246;2023-09-19T06:09:48;15.40;99.90
10702;DHT22;5402;50.004;8.246;2023-09-19T06:12:15;15.40;99.90
10702;DHT22;5402;50.004;8.246;2023-09-19T06:14:42;15.40;99.90
10702;DHT22;5402;50.004;8.246;2023-09-19T06:17:10;15.40;99.90
10702;DHT22;5402;50.004;8.246;2023-09-19T06:19:37;15.40;99.90
10702;DHT22;5402;50.004;8.246;2023-09-19T06:22:04;15.50;99.90
10702;DHT22;5402;50.004;8.246;2023-09-19T06:24:31;15.50;99.90
10702;DHT22;5402;50.004;8.246;2023-09-19T06:26:57;15.50;99.90
10702;DHT22;5402;50.004;8.246;2023-09-19T06:29:27;15.50;99.90
10702;DHT22;5402;50.004;8.246;2023-09-19T06:31:54;15.60;99.90
10702;DHT22;5402;50.004;8.246;2023-09-19T06:34:22;15.70;99.90
10702;DHT22;5402;50.004;8.246;2023-09-19T06:36:51;15.70;99.90
10702;DHT22;5402;50.004;8.246;2023-09-19T06:39:21;15.70;99.90
10702;DHT22;5402;50.004;8.246;2023-09-19T06:41:49;15.80;99.90
10702;DHT22;5402;50.004;8.246;2023-09-19T06:44:16;15.80;99.90
10702;DHT22;5402;50.004;8.246;2023-09-19T06:46:42;15.80;99.90
10702;DHT22;5402;50.004;8.246;2023-09-19T06:49:12;15.80;99.90
10702;DHT22;5402;50.004;8.246;2023-09-19T06:51:42;15.90;99.90
10702;DHT22;5402;50.004;8.246;2023-09-19T06:54:09;15.90;99.90
10702;DHT22;5402;50.004;8.246;2023-09-19T06:56:36;15.90;99.90
10702;DHT22;5402;50.004;8.246;2023-09-19T06:59:02;16.00;99.90
10702;DHT22;5402;50.004;8.246;2023-09-19T07:01:31;16.00;99.90
10702;DHT22;5402;50.004;8.246;2023-09-19T07:03:59;16.10;99.90
10702;DHT22;5402;50.004;8.246;2023-09-19T07:06:26;16.10;99.90
10702;DHT22;5402;50.004;8.246;2023-09-19T07:08:54;16.10;99.90
10702;DHT22;5402;50.004;8.246;2023-09-19T07:11:21;16.20;99.90
10702;DHT22;5402;50.004;8.246;2023-09-19T07:13:48;16.30;99.90
10702;DHT22;5402;50.004;8.246;2023-09-19T07:16:15;16.30;99.90
10702;DHT22;5402;50.004;8.246;2023-09-19T07:18:52;16.30;99.90
10702;DHT22;5402;50.004;8.246;2023-09-19T07:21:20;16.30;99.90
10702;DHT22;5402;50.004;8.246;2023-09-19T07:23:47;16.30;99.90
10702;DHT22;5402;50.004;8.246;2023-09-19T07:26:16;16.40;99.90
10702;DHT22;5402;50.004;8.246;2023-09-19T07:28:43;16.50;99.90
10702;DHT22;5402;50.004;8.246;2023-09-19T07:31:10;16.50;99.90
10702;DHT22;5402;50.004;8.246;2023-09-19T07:33:38;16.60;99.90
10702;DHT22;5402;50.004;8.246;2023-09-19T07:36:06;16.70;99.90
10702;DHT22;5402;50.004;8.246;2023-09-19T07:38:36;16.70;99.90
10702;DHT22;5402;50.004;8.246;2023-09-19T07:41:03;16.80;99.90
10702;DHT22;5402;50.004;8.246;2023-09-19T07:43:32;16.80;99.90
10702;DHT22;5402;50.004;8.246;2023-09-19T07:46:03;16.80;99.90
10702;DHT22;5402;50.004;8.246;2023-09-19T07:48:31;16.90;99.90
10702;DHT22;5402;50.004;8.246;2023-09-19T07:51:02;16.80;99.90
10702;DHT22;5402;50.004;8.246;2023-09-19T07:53:28;17.00;99.90
10702;DHT22;5402;50.004;8.246;2023-09-19T07:56:02;16.90;99.90
10702;DHT22;5402;50.004;8.246;2023-09-19T07:58:30;16.90;99.90
10702;DHT22;5402;50.004;8.246;2023-09-19T08:01:02;17.00;99.90
10702;DHT22;5402;50.004;8.246;2023-09-19T08:03:29;17.00;99.90
10702;DHT22;5402;50.004;8.246;2023-09-19T08:05:56;16.90;99.90
10702;DHT22;5402;50.004;8.246;2023-09-19T08:08:23;17.00;99.90
10702;DHT22;5402;50.004;8.246;2023-09-19T08:10:53;17.00;99.90
10702;DHT22;5402;50.004;8.246;2023-09-19T08:13:22;17.00;99.90
10702;DHT22;5402;50.004;8.246;2023-09-19T08:15:49;17.10;99.90
10702;DHT22;5402;50.004;8.246;2023-09-19T08:18:17;17.20;99.90
10702;DHT22;5402;50.004;8.246;2023-09-19T08:20:49;17.40;99.90
10702;DHT22;5402;50.004;8.246;2023-09-19T08:23:18;17.50;99.90
10702;DHT22;5402;50.004;8.246;2023-09-19T08:25:45;17.60;99.90
10702;DHT22;5402;50.004;8.246;2023-09-19T08:28:12;17.60;99.90
10702;DHT22;5402;50.004;8.246;2023-09-19T08:30:43;17.80;99.90
10702;DHT22;5402;50.004;8.246;2023-09-19T08:33:10;17.80;99.90
10702;DHT22;5402;50.004;8.246;2023-09-19T08:35:38;17.90;99.90
10702;DHT22;5402;50.004;8.246;2023-09-19T08:38:05;17.80;99.90
10702;DHT22;5402;50.004;8.246;2023-09-19T08:40:32;17.60;99.90
10702;DHT22;5402;50.004;8.246;2023-09-19T08:43:00;17.70;99.90
10702;DHT22;5402;50.004;8.246;2023-09-19T08:45:27;17.70;99.90
10702;DHT22;5402;50.004;8.246;2023-09-19T08:48:03;17.80;99.90
10702;DHT22;5402;50.004;8.246;2023-09-19T08:50:39;17.90;99.90
10702;DHT22;5402;50.004;8.246;2023-09-19T08:53:11;18.10;99.90
10702;DHT22;5402;50.004;8.246;2023-09-19T08:55:40;18.40;99.90
10702;DHT22;5402;50.004;8.246;2023-09-19T08:58:10;18.20;99.90
10702;DHT22;5402;50.004;8.246;2023-09-19T09:00:39;18.10;99.90
10702;DHT22;5402;50.004;8.246;2023-09-19T09:03:09;18.20;99.90
10702;DHT22;5402;50.004;8.246;2023-09-19T09:05:38;18.10;99.90
10702;DHT22;5402;50.004;8.246;2023-09-19T09:08:10;18.20;99.90
10702;DHT22;5402;50.004;8.246;2023-09-19T09:10:37;18.10;99.90
10702;DHT22;5402;50.004;8.246;2023-09-19T09:13:06;18.30;99.90
10702;DHT22;5402;50.004;8.246;2023-09-19T09:15:36;18.30;99.90
10702;DHT22;5402;50.004;8.246;2023-09-19T09:18:04;18.50;99.90
10702;DHT22;5402;50.004;8.246;2023-09-19T09:20:31;18.60;99.90
10702;DHT22;5402;50.004;8.246;2023-09-19T09:22:59;18.70;99.90
10702;DHT22;5402;50.004;8.246;2023-09-19T09:25:46;18.70;99.90
10702;DHT22;5402;50.004;8.246;2023-09-19T09:28:19;18.80;99.90
10702;DHT22;5402;50.004;8.246;2023-09-19T09:30:46;18.80;99.90
10702;DHT22;5402;50.004;8.246;2023-09-19T09:33:14;19.00;99.90
10702;DHT22;5402;50.004;8.246;2023-09-19T09:35:48;18.90;99.90
10702;DHT22;5402;50.004;8.246;2023-09-19T09:38:19;19.00;99.90
10702;DHT22;5402;50.004;8.246;2023-09-19T09:40:46;18.80;99.90
10702;DHT22;5402;50.004;8.246;2023-09-19T09:43:34;19.10;99.90
10702;DHT22;5402;50.004;8.246;2023-09-19T09:46:07;19.10;99.90
10702;DHT22;5402;50.004;8.246;2023-09-19T09:48:59;19.10;99.90
10702;DHT22;5402;50.004;8.246;2023-09-19T09:51:59;19.20;99.90
10702;DHT22;5402;50.004;8.246;2023-09-19T09:54:32;19.20;99.90
10702;DHT22;5402;50.004;8.246;2023-09-19T09:57:04;19.20;99.90
10702;DHT22;5402;50.004;8.246;2023-09-19T09:59:50;19.20;99.90
10702;DHT22;5402;50.004;8.246;2023-09-19T10:02:19;19.30;99.90
10702;DHT22;5402;50.004;8.246;2023-09-19T10:04:50;19.50;99.90
10702;DHT22;5402;50.004;8.246;2023-09-19T10:07:36;19.40;99.90
10702;DHT22;5402;50.004;8.246;2023-09-19T10:10:07;19.50;99.90
10702;DHT22;5402;50.004;8.246;2023-09-19T10:12:46;19.60;99.90
10702;DHT22;5402;50.004;8.246;2023-09-19T10:15:15;19.40;99.90
10702;DHT22;5402;50.004;8.246;2023-09-19T10:17:43;19.50;99.90
10702;DHT22;5402;50.004;8.246;2023-09-19T10:20:13;19.70;99.90
10702;DHT22;5402;50.004;8.246;2023-09-19T10:23:00;19.60;99.90
10702;DHT22;5402;50.004;8.246;2023-09-19T10:25:29;19.30;99.90
10702;DHT22;5402;50.004;8.246;2023-09-19T10:27:57;19.10;99.90
10702;DHT22;5402;50.004;8.246;2023-09-19T10:30:27;19.20;99.90
10702;DHT22;5402;50.004;8.246;2023-09-19T10:33:00;19.50;99.90
10702;DHT22;5402;50.004;8.246;2023-09-19T10:35:27;19.80;99.90
10702;DHT22;5402;50.004;8.246;2023-09-19T10:37:56;19.90;99.90
10702;DHT22;5402;50.004;8.246;2023-09-19T10:40:24;20.00;99.90
10702;DHT22;5402;50.004;8.246;2023-09-19T10:43:00;20.20;99.90
10702;DHT22;5402;50.004;8.246;2023-09-19T10:45:29;20.10;99.90
10702;DHT22;5402;50.004;8.246;2023-09-19T10:47:57;20.30;99.90
10702;DHT22;5402;50.004;8.246;2023-09-19T10:50:24;20.40;99.90
10702;DHT22;5402;50.004;8.246;2023-09-19T10:52:54;20.70;99.90
10702;DHT22;5402;50.004;8.246;2023-09-19T10:55:28;21.00;99.90
10702;DHT22;5402;50.004;8.246;2023-09-19T10:57:58;20.70;99.90
10702;DHT22;5402;50.004;8.246;2023-09-19T11:00:54;20.70;99.90
10702;DHT22;5402;50.004;8.246;2023-09-19T11:03:24;20.30;99.90
10702;DHT22;5402;50.004;8.246;2023-09-19T11:06:09;20.50;99.90
10702;DHT22;5402;50.004;8.246;2023-09-19T11:08:59;20.50;99.90
10702;DHT22;5402;50.004;8.246;2023-09-19T11:11:49;20.20;99.90
10702;DHT22;5402;50.004;8.246;2023-09-19T11:14:38;20.20;99.90
10702;DHT22;5402;50.004;8.246;2023-09-19T11:17:34;20.40;99.90
10702;DHT22;5402;50.004;8.246;2023-09-19T11:20:22;20.50;99.90
10702;DHT22;5402;50.004;8.246;2023-09-19T11:23:23;20.30;99.90
10702;DHT22;5402;50.004;8.246;2023-09-19T11:25:52;20.20;99.90
10702;DHT22;5402;50.004;8.246;2023-09-19T11:28:33;20.00;99.90
10702;DHT22;5402;50.004;8.246;2023-09-19T11:34:46;19.90;99.90
10702;DHT22;5402;50.004;8.246;2023-09-19T11:40:46;20.20;99.90
10702;DHT22;5402;50.004;8.246;2023-09-19T11:43:30;20.40;99.90
10702;DHT22;5402;50.004;8.246;2023-09-19T11:46:09;20.60;99.90
10702;DHT22;5402;50.004;8.246;2023-09-19T11:48:38;20.80;99.90
10702;DHT22;5402;50.004;8.246;2023-09-19T11:51:18;20.80;99.90
10702;DHT22;5402;50.004;8.246;2023-09-19T11:53:48;20.90;99.90
10702;DHT22;5402;50.004;8.246;2023-09-19T11:56:16;21.10;99.90
10702;DHT22;5402;50.004;8.246;2023-09-19T11:58:44;21.00;99.90
10702;DHT22;5402;50.004;8.246;2023-09-19T12:01:15;21.10;99.90
10702;DHT22;5402;50.004;8.246;2023-09-19T12:03:47;21.00;99.90
10702;DHT22;5402;50.004;8.246;2023-09-19T12:06:16;20.90;99.90
10702;DHT22;5402;50.004;8.246;2023-09-19T12:08:44;20.90;99.90
10702;DHT22;5402;50.004;8.246;2023-09-19T12:11:13;20.80;99.90
10702;DHT22;5402;50.004;8.246;2023-09-19T12:13:42;20.80;99.90
10702;DHT22;5402;50.004;8.246;2023-09-19T12:16:14;20.60;99.90
10702;DHT22;5402;50.004;8.246;2023-09-19T12:18:42;20.60;99.90
10702;DHT22;5402;50.004;8.246;2023-09-19T12:21:23;21.00;99.90
10702;DHT22;5402;50.004;8.246;2023-09-19T12:23:58;21.00;99.90
10702;DHT22;5402;50.004;8.246;2023-09-19T12:26:26;21.10;99.90
10702;DHT22;5402;50.004;8.246;2023-09-19T12:28:54;21.20;99.90
10702;DHT22;5402;50.004;8.246;2023-09-19T12:31:21;21.30;99.30
10702;DHT22;5402;50.004;8.246;2023-09-19T12:33:53;21.10;98.60
10702;DHT22;5402;50.004;8.246;2023-09-19T12:36:21;21.20;99.90
10702;DHT22;5402;50.004;8.246;2023-09-19T12:38:52;21.20;99.90
10702;DHT22;5402;50.004;8.246;2023-09-19T12:41:20;21.10;98.70
10702;DHT22;5402;50.004;8.246;2023-09-19T12:43:48;21.20;99.90
10702;DHT22;5402;50.004;8.246;2023-09-19T12:46:20;21.20;99.50
10702;DHT22;5402;50.004;8.246;2023-09-19T12:51:35;21.40;99.40
10702;DHT22;5402;50.004;8.246;2023-09-19T12:54:04;21.40;99.90
10702;DHT22;5402;50.004;8.246;2023-09-19T12:56:39;21.20;99.40
10702;DHT22;5402;50.004;8.246;2023-09-19T12:59:07;21.30;99.80
10702;DHT22;5402;50.004;8.246;2023-09-19T13:01:35;21.20;99.30
10702;DHT22;5402;50.004;8.246;2023-09-19T13:04:13;21.10;99.90
10702;DHT22;5402;50.004;8.246;2023-09-19T13:06:43;21.10;99.90
10702;DHT22;5402;50.004;8.246;2023-09-19T13:09:12;21.10;99.10
10702;DHT22;5402;50.004;8.246;2023-09-19T13:11:42;21.10;99.90
10702;DHT22;5402;50.004;8.246;2023-09-19T13:14:16;21.10;99.90
10702;DHT22;5402;50.004;8.246;2023-09-19T13:16:54;21.30;99.70
10702;DHT22;5402;50.004;8.246;2023-09-19T13:19:35;21.20;99.50
10702;DHT22;5402;50.004;8.246;2023-09-19T13:22:02;21.40;99.50
10702;DHT22;5402;50.004;8.246;2023-09-19T13:24:31;21.40;99.50
10702;DHT22;5402;50.004;8.246;2023-09-19T13:27:00;21.50;99.90
10702;DHT22;5402;50.004;8.246;2023-09-19T13:29:29;21.50;99.90
10702;DHT22;5402;50.004;8.246;2023-09-19T13:31:55;21.60;99.90
10702;DHT22;5402;50.004;8.246;2023-09-19T13:34:22;21.50;99.60
10702;DHT22;5402;50.004;8.246;2023-09-19T13:36:50;21.40;99.60
10702;DHT22;5402;50.004;8.246;2023-09-19T13:39:17;21.20;99.80
10702;DHT22;5402;50.004;8.246;2023-09-19T13:41:46;21.10;99.90
10702;DHT22;5402;50.004;8.246;2023-09-19T13:44:13;20.90;99.20
10702;DHT22;5402;50.004;8.246;2023-09-19T13:46:40;20.90;99.90
10702;DHT22;5402;50.004;8.246;2023-09-19T13:49:11;20.80;99.40
10702;DHT22;5402;50.004;8.246;2023-09-19T13:51:38;20.90;99.90
10702;DHT22;5402;50.004;8.246;2023-09-19T13:54:08;21.00;99.40
10702;DHT22;5402;50.004;8.246;2023-09-19T13:56:37;21.10;99.80
10702;DHT22;5402;50.004;8.246;2023-09-19T13:59:06;21.30;99.90
10702;DHT22;5402;50.004;8.246;2023-09-19T14:01:33;21.40;99.10
10702;DHT22;5402;50.004;8.246;2023-09-19T14:04:00;21.40;98.80
10702;DHT22;5402;50.004;8.246;2023-09-19T14:06:27;21.10;98.30
10702;DHT22;5402;50.004;8.246;2023-09-19T14:08:54;20.90;99.00
10702;DHT22;5402;50.004;8.246;2023-09-19T14:11:23;20.80;99.30
10702;DHT22;5402;50.004;8.246;2023-09-19T14:13:50;21.00;99.50
10702;DHT22;5402;50.004;8.246;2023-09-19T14:16:18;21.20;99.70
10702;DHT22;5402;50.004;8.246;2023-09-19T14:18:47;21.30;99.00
10702;DHT22;5402;50.004;8.246;2023-09-19T14:21:14;21.40;99.70
10702;DHT22;5402;50.004;8.246;2023-09-19T14:23:41;21.50;99.70
10702;DHT22;5402;50.004;8.246;2023-09-19T14:26:10;21.60;99.70
10702;DHT22;5402;50.004;8.246;2023-09-19T14:28:37;21.60;98.00
10702;DHT22;5402;50.004;8.246;2023-09-19T14:31:06;21.50;98.30
10702;DHT22;5402;50.004;8.246;2023-09-19T14:33:34;21.30;98.50
10702;DHT22;5402;50.004;8.246;2023-09-19T14:36:04;21.10;98.60
10702;DHT22;5402;50.004;8.246;2023-09-19T14:38:32;21.00;98.90
10702;DHT22;5402;50.004;8.246;2023-09-19T14:41:00;20.80;99.50
10702;DHT22;5402;50.004;8.246;2023-09-19T14:43:27;20.70;99.60
10702;DHT22;5402;50.004;8.246;2023-09-19T14:45:55;20.60;99.90
10702;DHT22;5402;50.004;8.246;2023-09-19T14:48:22;20.60;99.70
10702;DHT22;5402;50.004;8.246;2023-09-19T14:50:53;20.70;99.90
10702;DHT22;5402;50.004;8.246;2023-09-19T14:53:20;21.00;99.90
10702;DHT22;5402;50.004;8.246;2023-09-19T14:55:47;21.10;99.90
10702;DHT22;5402;50.004;8.246;2023-09-19T14:58:17;21.20;99.90
10702;DHT22;5402;50.004;8.246;2023-09-19T15:00:44;21.20;99.40
10702;DHT22;5402;50.004;8.246;2023-09-19T15:03:11;21.30;99.30
10702;DHT22;5402;50.004;8.246;2023-09-19T15:05:39;21.40;99.50
10702;DHT22;5402;50.004;8.246;2023-09-19T15:08:07;21.30;99.40
10702;DHT22;5402;50.004;8.246;2023-09-19T15:10:33;21.40;99.50
10702;DHT22;5402;50.004;8.246;2023-09-19T15:13:00;21.30;99.50
10702;DHT22;5402;50.004;8.246;2023-09-19T15:15:27;21.30;99.20
10702;DHT22;5402;50.004;8.246;2023-09-19T15:17:56;21.30;99.70
10702;DHT22;5402;50.004;8.246;2023-09-19T15:20:23;21.20;99.90
10702;DHT22;5402;50.004;8.246;2023-09-19T15:22:50;21.20;99.90
10702;DHT22;5402;50.004;8.246;2023-09-19T15:25:18;21.30;99.90
10702;DHT22;5402;50.004;8.246;2023-09-19T15:27:45;21.40;99.90
10702;DHT22;5402;50.004;8.246;2023-09-19T15:30:12;21.30;99.90
10702;DHT22;5402;50.004;8.246;2023-09-19T15:32:40;21.30;99.90
10702;DHT22;5402;50.004;8.246;2023-09-19T15:35:08;21.20;99.90
10702;DHT22;5402;50.004;8.246;2023-09-19T15:37:39;21.20;99.90
10702;DHT22;5402;50.004;8.246;2023-09-19T15:40:07;21.10;99.90
10702;DHT22;5402;50.004;8.246;2023-09-19T15:42:37;21.10;99.90
10702;DHT22;5402;50.004;8.246;2023-09-19T15:45:05;21.00;99.90
10702;DHT22;5402;50.004;8.246;2023-09-19T15:47:35;20.90;99.90
10702;DHT22;5402;50.004;8.246;2023-09-19T15:50:03;20.90;99.90
10702;DHT22;5402;50.004;8.246;2023-09-19T15:52:30;20.80;99.90
10702;DHT22;5402;50.004;8.246;2023-09-19T15:54:57;20.70;99.90
10702;DHT22;5402;50.004;8.246;2023-09-19T15:57:23;20.80;99.90
10702;DHT22;5402;50.004;8.246;2023-09-19T15:59:52;20.90;99.90
10702;DHT22;5402;50.004;8.246;2023-09-19T16:02:18;20.90;99.90
10702;DHT22;5402;50.004;8.246;2023-09-19T16:04:45;20.80;99.90
10702;DHT22;5402;50.004;8.246;2023-09-19T16:07:12;20.80;99.90
10702;DHT22;5402;50.004;8.246;2023-09-19T16:09:40;20.80;99.90
10702;DHT22;5402;50.004;8.246;2023-09-19T16:12:08;20.80;99.90